createdAt,value
2022-12-25T00:00:42.212Z,0.70
2022-12-25T00:03:09.706Z,1.20
2022-12-25T00:05:38.800Z,1.30
2022-12-25T00:08:06.352Z,1.35
2022-12-25T00:10:33.940Z,1.38
2022-12-25T00:13:01.105Z,1.40
2022-12-25T00:15:28.436Z,1.60
2022-12-25T00:17:55.672Z,1.42
2022-12-25T00:20:22.826Z,0.93
2022-12-25T00:22:49.990Z,1.00
2022-12-25T00:25:17.141Z,1.05
2022-12-25T00:27:44.322Z,1.10
2022-12-25T00:30:11.616Z,1.50
2022-12-25T00:32:38.834Z,1.73
2022-12-25T00:35:06.417Z,1.10
2022-12-25T00:37:33.584Z,1.42
2022-12-25T00:40:00.754Z,1.75
2022-12-25T00:42:28.518Z,1.00
2022-12-25T00:44:55.659Z,0.90
2022-12-25T00:47:22.899Z,0.95
2022-12-25T00:49:50.205Z,1.13
2022-12-25T00:52:17.334Z,1.20
2022-12-25T00:54:44.508Z,1.10
2022-12-25T00:57:11.650Z,0.93
2022-12-25T00:59:38.845Z,1.30
2022-12-25T01:02:35.332Z,0.90
2022-12-25T01:05:02.863Z,1.10
2022-12-25T01:07:30.127Z,0.90
2022-12-25T01:10:16.268Z,1.35
2022-12-25T01:12:44.162Z,0.98
2022-12-25T01:15:12.639Z,1.38
2022-12-25T01:17:39.794Z,1.02
2022-12-25T01:20:07.287Z,1.50
2022-12-25T01:22:34.456Z,1.35
2022-12-25T01:25:01.683Z,1.90
2022-12-25T01:27:28.914Z,1.10
2022-12-25T01:29:56.090Z,1.10
2022-12-25T01:32:23.257Z,0.90
2022-12-25T01:34:55.926Z,1.00
2022-12-25T01:37:24.909Z,1.58
2022-12-25T01:39:52.205Z,0.93
2022-12-25T01:42:20.632Z,1.00
2022-12-25T01:44:48.524Z,1.23
2022-12-25T01:47:16.848Z,1.00
2022-12-25T01:49:47.124Z,1.05
2022-12-25T01:52:21.659Z,1.35
2022-12-25T01:54:52.908Z,1.30
2022-12-25T01:57:24.517Z,1.10
2022-12-25T01:59:52.063Z,1.20
2022-12-25T02:02:19.438Z,0.80
2022-12-25T02:04:49.145Z,0.90
2022-12-25T02:07:20.687Z,1.23
2022-12-25T02:09:48.035Z,1.17
2022-12-25T02:12:20.994Z,1.02
2022-12-25T02:14:49.374Z,0.70
2022-12-25T02:17:28.501Z,1.25
2022-12-25T02:19:55.652Z,1.23
2022-12-25T02:22:35.959Z,1.05
2022-12-25T02:25:15.097Z,0.80
2022-12-25T02:27:45.093Z,1.08
2022-12-25T02:30:12.482Z,0.70
2022-12-25T02:32:39.664Z,0.93
2022-12-25T02:35:16.013Z,0.88
2022-12-25T02:37:52.462Z,0.88
2022-12-25T02:40:23.063Z,0.57
2022-12-25T02:43:17.768Z,1.00
2022-12-25T02:46:10.396Z,1.00
2022-12-25T02:48:57.908Z,0.60
2022-12-25T02:51:46.143Z,0.82
2022-12-25T02:54:33.792Z,1.20
2022-12-25T02:57:21.708Z,1.58
2022-12-25T03:00:08.733Z,1.25
2022-12-25T03:02:54.862Z,0.98
2022-12-25T03:05:42.768Z,1.42
2022-12-25T03:08:14.561Z,1.42
2022-12-25T03:11:04.274Z,1.00
2022-12-25T03:13:37.759Z,1.35
2022-12-25T03:16:23.917Z,1.15
2022-12-25T03:18:51.182Z,1.08
2022-12-25T03:21:56.745Z,1.33
2022-12-25T03:24:42.720Z,1.50
2022-12-25T03:27:09.900Z,1.35
2022-12-25T03:29:55.904Z,1.15
2022-12-25T03:32:31.803Z,0.88
2022-12-25T03:35:25.881Z,0.90
2022-12-25T03:38:29.975Z,0.75
2022-12-25T03:41:44.547Z,0.70
2022-12-25T03:44:41.468Z,0.70
2022-12-25T03:47:38.147Z,0.65
2022-12-25T03:50:26.531Z,0.80
2022-12-25T03:53:13.170Z,1.10
2022-12-25T03:55:59.575Z,0.60
2022-12-25T03:58:46.300Z,1.10
2022-12-25T04:01:32.431Z,1.30
2022-12-25T04:04:18.364Z,0.80
2022-12-25T04:07:04.310Z,1.02
2022-12-25T04:09:50.187Z,0.70
2022-12-25T04:12:36.128Z,0.60
2022-12-25T04:15:22.407Z,0.73
2022-12-25T04:18:11.357Z,0.70
2022-12-25T04:20:57.709Z,0.70
2022-12-25T04:23:43.712Z,0.88
2022-12-25T04:26:29.708Z,1.10
2022-12-25T04:29:15.825Z,0.82
2022-12-25T04:32:01.799Z,0.95
2022-12-25T04:34:47.588Z,1.05
2022-12-25T04:37:14.824Z,1.15
2022-12-25T04:39:42.046Z,0.90
2022-12-25T04:42:09.197Z,1.10
2022-12-25T04:44:36.364Z,1.25
2022-12-25T04:47:09.174Z,1.20
2022-12-25T04:49:38.247Z,2.05
2022-12-25T04:52:05.566Z,1.17
2022-12-25T04:54:32.768Z,1.27
2022-12-25T04:56:59.948Z,1.48
2022-12-25T04:59:27.099Z,2.53
2022-12-25T05:01:54.287Z,1.42
2022-12-25T05:04:21.542Z,1.77
2022-12-25T05:06:48.732Z,1.50
2022-12-25T05:09:15.881Z,1.50
2022-12-25T05:11:43.048Z,1.70
2022-12-25T05:14:10.190Z,1.80
2022-12-25T05:16:37.440Z,1.77
2022-12-25T05:19:04.583Z,1.48
2022-12-25T05:21:31.762Z,1.30
2022-12-25T05:23:58.940Z,1.48
2022-12-25T05:26:27.288Z,2.05
2022-12-25T05:28:54.787Z,1.13
2022-12-25T05:31:22.092Z,1.48
2022-12-25T05:33:53.341Z,1.25
2022-12-25T05:36:20.555Z,1.30
2022-12-25T05:38:47.727Z,1.65
2022-12-25T05:41:14.951Z,1.50
2022-12-25T05:43:42.080Z,1.40
2022-12-25T05:46:10.407Z,1.50
2022-12-25T05:48:38.655Z,1.40
2022-12-25T05:51:13.231Z,0.90
2022-12-25T05:53:40.806Z,1.67
2022-12-25T05:56:08.708Z,1.40
2022-12-25T05:58:37.140Z,1.08
2022-12-25T06:01:04.821Z,1.20
2022-12-25T06:03:32.320Z,1.13
2022-12-25T06:05:59.583Z,1.48
2022-12-25T06:08:26.788Z,1.13
2022-12-25T06:10:53.961Z,1.50
2022-12-25T06:13:21.164Z,1.27
2022-12-25T06:15:48.337Z,1.15
2022-12-25T06:18:15.463Z,0.95
2022-12-25T06:20:42.615Z,0.90
2022-12-25T06:23:09.952Z,1.00
2022-12-25T06:25:39.249Z,1.10
2022-12-25T06:28:06.562Z,1.15
2022-12-25T06:30:33.693Z,1.30
2022-12-25T06:33:01.006Z,1.67
2022-12-25T06:35:28.579Z,1.02
2022-12-25T06:37:56.659Z,0.95
2022-12-25T06:40:23.829Z,0.63
2022-12-25T06:42:52.449Z,0.75
2022-12-25T06:45:19.658Z,1.17
2022-12-25T06:47:46.804Z,1.08
2022-12-25T06:50:13.984Z,0.95
2022-12-25T06:52:41.187Z,0.80
2022-12-25T06:55:08.511Z,1.00
2022-12-25T06:57:35.662Z,1.10
2022-12-25T07:00:03.509Z,1.10
2022-12-25T07:02:32.210Z,0.93
2022-12-25T07:04:59.841Z,1.02
2022-12-25T07:07:26.993Z,1.02
2022-12-25T07:09:54.146Z,1.20
2022-12-25T07:12:23.348Z,1.00
2022-12-25T07:14:50.598Z,1.00
2022-12-25T07:17:17.919Z,0.90
2022-12-25T07:19:45.640Z,1.02
2022-12-25T07:22:13.226Z,1.42
2022-12-25T07:24:40.467Z,0.88
2022-12-25T07:27:08.358Z,0.95
2022-12-25T07:29:35.958Z,2.25
2022-12-25T07:32:03.224Z,1.33
2022-12-25T07:34:30.397Z,1.55
2022-12-25T07:36:57.576Z,1.30
2022-12-25T07:39:24.712Z,1.45
2022-12-25T07:41:51.923Z,1.45
2022-12-25T07:44:19.170Z,1.02
2022-12-25T07:46:46.413Z,1.17
2022-12-25T07:49:13.671Z,1.15
2022-12-25T07:51:40.934Z,1.30
2022-12-25T07:54:08.200Z,4.15
2022-12-25T07:56:35.399Z,1.17
2022-12-25T07:59:02.692Z,1.50
2022-12-25T08:01:30.453Z,2.00
2022-12-25T08:03:59.163Z,1.20
2022-12-25T08:06:29.781Z,1.45
2022-12-25T08:08:58.430Z,1.30
2022-12-25T08:11:25.598Z,1.70
2022-12-25T08:13:52.907Z,2.00
2022-12-25T08:16:20.228Z,2.38
2022-12-25T08:18:47.484Z,1.65
2022-12-25T08:21:15.417Z,1.38
2022-12-25T08:23:43.879Z,2.28
2022-12-25T08:26:21.388Z,1.27
2022-12-25T08:28:49.132Z,1.33
2022-12-25T08:31:18.262Z,1.83
2022-12-25T08:33:45.571Z,2.03
2022-12-25T08:36:13.080Z,2.35
2022-12-25T08:38:40.966Z,1.58
2022-12-25T08:41:08.252Z,2.17
2022-12-25T08:43:35.675Z,1.95
2022-12-25T08:46:03.199Z,1.73
2022-12-25T08:48:30.670Z,2.15
2022-12-25T08:50:58.090Z,3.67
2022-12-25T08:53:25.704Z,1.70
2022-12-25T08:56:00.206Z,1.98
2022-12-25T08:58:27.745Z,2.15
2022-12-25T09:00:55.015Z,2.50
2022-12-25T09:03:22.673Z,1.70
2022-12-25T09:05:49.931Z,1.75
2022-12-25T09:08:17.080Z,2.00
2022-12-25T09:10:44.289Z,2.80
2022-12-25T09:13:12.832Z,1.67
2022-12-25T09:15:40.228Z,2.28
2022-12-25T09:18:07.433Z,1.80
2022-12-25T09:20:34.617Z,2.05
2022-12-25T09:23:01.881Z,1.85
2022-12-25T09:25:29.126Z,2.22
2022-12-25T09:27:56.837Z,5.05
2022-12-25T09:30:24.074Z,1.60
2022-12-25T09:32:51.292Z,1.13
2022-12-25T09:35:19.026Z,1.10
2022-12-25T09:37:46.296Z,1.30
2022-12-25T09:40:19.207Z,1.60
2022-12-25T09:42:46.531Z,1.60
2022-12-25T09:45:24.212Z,1.00
2022-12-25T09:47:53.669Z,0.90
2022-12-25T09:50:23.858Z,1.00
2022-12-25T09:53:14.047Z,0.85
2022-12-25T09:55:46.877Z,1.23
2022-12-25T09:58:14.488Z,1.00
2022-12-25T10:00:42.893Z,0.82
2022-12-25T10:03:15.788Z,0.85
2022-12-25T10:06:12.421Z,1.35
2022-12-25T10:08:50.731Z,3.15
2022-12-25T10:11:26.838Z,1.00
2022-12-25T10:13:59.885Z,1.40
2022-12-25T10:16:27.203Z,1.05
2022-12-25T10:19:24.174Z,0.98
2022-12-25T10:21:56.706Z,0.80
2022-12-25T10:24:26.911Z,1.08
2022-12-25T10:26:56.356Z,0.90
2022-12-25T10:29:23.541Z,0.80
2022-12-25T10:31:54.301Z,0.52
2022-12-25T10:34:22.325Z,0.95
2022-12-25T10:36:50.116Z,0.80
2022-12-25T10:39:21.200Z,1.10
2022-12-25T10:42:06.545Z,0.60
2022-12-25T10:44:34.569Z,0.40
2022-12-25T10:47:02.476Z,1.02
2022-12-25T10:49:34.175Z,1.35
2022-12-25T10:52:02.618Z,0.75
2022-12-25T10:54:29.860Z,1.08
2022-12-25T10:57:00.125Z,0.95
2022-12-25T10:59:29.284Z,1.08
2022-12-25T11:01:57.671Z,0.70
2022-12-25T11:04:28.798Z,0.70
2022-12-25T11:07:16.349Z,0.50
2022-12-25T11:09:49.664Z,0.60
2022-12-25T11:12:18.523Z,0.40
2022-12-25T11:14:53.717Z,0.60
2022-12-25T11:17:23.293Z,0.40
2022-12-25T11:19:58.253Z,0.50
2022-12-25T11:22:26.538Z,0.63
2022-12-25T11:24:53.962Z,0.40
2022-12-25T11:27:25.956Z,0.35
2022-12-25T11:29:55.519Z,0.30
2022-12-25T11:32:30.506Z,0.38
2022-12-25T11:34:58.294Z,0.40
2022-12-25T11:37:34.783Z,0.40
2022-12-25T11:40:02.970Z,0.50
2022-12-25T11:42:37.871Z,0.38
2022-12-25T11:45:07.774Z,0.20
2022-12-25T11:47:40.731Z,0.10
2022-12-25T11:50:28.953Z,0.20
2022-12-25T11:52:56.483Z,0.15
2022-12-25T11:55:32.321Z,0.20
2022-12-25T11:58:02.045Z,0.17
2022-12-25T12:00:30.303Z,0.28
2022-12-25T12:03:11.363Z,0.00
2022-12-25T12:05:52.573Z,0.15
2022-12-25T12:08:19.780Z,0.10
2022-12-25T12:11:16.097Z,0.25
2022-12-25T12:13:49.801Z,0.10
2022-12-25T12:16:17.048Z,0.28
2022-12-25T12:18:50.423Z,0.10
2022-12-25T12:21:29.701Z,0.20
2022-12-25T12:24:15.155Z,0.70
2022-12-25T12:26:43.941Z,0.13
2022-12-25T12:29:24.208Z,0.20
2022-12-25T12:31:52.091Z,0.10
2022-12-25T12:34:22.794Z,0.00
2022-12-25T12:36:51.064Z,0.20
2022-12-25T12:39:22.376Z,0.20
2022-12-25T12:41:50.142Z,0.10
2022-12-25T12:44:18.126Z,0.20
2022-12-25T12:46:55.446Z,0.30
2022-12-25T12:49:22.615Z,0.10
2022-12-25T12:51:50.203Z,0.20
2022-12-25T12:54:18.258Z,0.10
2022-12-25T12:56:57.540Z,0.13
2022-12-25T12:59:25.715Z,0.13
2022-12-25T13:02:01.095Z,0.20
2022-12-25T13:04:31.533Z,0.13
2022-12-25T13:07:24.974Z,0.10
2022-12-25T13:09:59.233Z,0.10
2022-12-25T13:12:26.533Z,0.13
2022-12-25T13:14:53.758Z,0.10
2022-12-25T13:17:22.799Z,0.20
2022-12-25T13:19:55.586Z,0.30
2022-12-25T13:22:24.549Z,0.20
2022-12-25T13:25:02.142Z,0.35
2022-12-25T13:27:33.540Z,0.32
2022-12-25T13:30:00.810Z,0.30
2022-12-25T13:32:30.202Z,0.30
2022-12-25T13:34:57.641Z,0.28
2022-12-25T13:37:26.304Z,0.30
2022-12-25T13:39:57.997Z,0.30
2022-12-25T13:42:32.849Z,0.10
2022-12-25T13:45:01.350Z,0.20
2022-12-25T13:47:49.933Z,0.20
2022-12-25T13:50:20.318Z,0.50
2022-12-25T13:52:47.949Z,0.25
2022-12-25T13:55:15.144Z,0.25
2022-12-25T13:57:46.727Z,0.30
2022-12-25T14:00:19.095Z,0.30
2022-12-25T14:02:46.713Z,0.40
2022-12-25T14:05:29.312Z,0.40
2022-12-25T14:07:58.131Z,0.30
2022-12-25T14:10:26.721Z,0.40
2022-12-25T14:12:55.326Z,0.50
2022-12-25T14:15:23.650Z,0.80
2022-12-25T14:17:51.317Z,0.38
2022-12-25T14:20:38.594Z,1.00
2022-12-25T14:23:06.099Z,0.30
2022-12-25T14:25:42.278Z,0.30
2022-12-25T14:28:17.913Z,0.43
2022-12-25T14:30:45.436Z,0.50
2022-12-25T14:33:23.450Z,0.50
2022-12-25T14:35:51.082Z,0.28
2022-12-25T14:38:22.571Z,0.40
2022-12-25T14:40:58.850Z,0.40
2022-12-25T14:43:27.200Z,0.60
2022-12-25T14:45:58.197Z,0.40
2022-12-25T14:48:28.013Z,0.60
2022-12-25T14:51:00.589Z,0.55
2022-12-25T14:53:33.059Z,0.63
2022-12-25T14:56:00.366Z,0.50
2022-12-25T14:58:28.619Z,0.50
2022-12-25T15:00:56.955Z,0.60
2022-12-25T15:03:27.069Z,1.13
2022-12-25T15:06:19.348Z,0.80
2022-12-25T15:08:57.136Z,1.13
2022-12-25T15:11:24.321Z,1.63
2022-12-25T15:13:51.778Z,0.80
2022-12-25T15:16:22.507Z,1.92
2022-12-25T15:18:50.352Z,4.88
2022-12-25T15:21:20.821Z,1.23
2022-12-25T15:23:48.148Z,0.40
2022-12-25T15:26:15.632Z,0.50
2022-12-25T15:28:42.835Z,0.40
2022-12-25T15:31:21.007Z,0.63
2022-12-25T15:33:48.694Z,1.15
2022-12-25T15:36:16.060Z,0.73
2022-12-25T15:38:43.355Z,0.70
2022-12-25T15:41:37.282Z,0.80
2022-12-25T15:44:05.584Z,0.50
2022-12-25T15:46:33.156Z,0.40
2022-12-25T15:49:00.729Z,0.95
2022-12-25T15:51:27.972Z,0.43
2022-12-25T15:53:55.399Z,0.50
2022-12-25T15:56:24.150Z,0.40
2022-12-25T15:58:51.329Z,0.40
2022-12-25T16:01:19.860Z,0.80
2022-12-25T16:03:47.570Z,0.40
2022-12-25T16:06:19.218Z,0.35
2022-12-25T16:08:46.460Z,0.40
2022-12-25T16:11:13.665Z,0.50
2022-12-25T16:13:40.808Z,0.70
2022-12-25T16:16:08.244Z,0.70
2022-12-25T16:18:35.465Z,1.15
2022-12-25T16:21:02.608Z,0.50
2022-12-25T16:23:29.774Z,0.40
2022-12-25T16:25:56.919Z,0.50
2022-12-25T16:28:24.089Z,1.17
2022-12-25T16:30:51.315Z,1.42
2022-12-25T16:33:18.685Z,0.98
2022-12-25T16:35:47.109Z,0.50
2022-12-25T16:38:14.383Z,1.02
2022-12-25T16:40:41.607Z,0.85
2022-12-25T16:43:08.792Z,0.40
2022-12-25T16:45:39.920Z,0.60
2022-12-25T16:48:09.921Z,0.82
2022-12-25T16:50:39.390Z,0.73
2022-12-25T16:53:06.987Z,0.63
2022-12-25T16:55:34.248Z,0.52
2022-12-25T16:58:01.651Z,0.40
2022-12-25T17:00:28.815Z,0.60
2022-12-25T17:02:57.016Z,1.25
2022-12-25T17:05:27.238Z,0.50
2022-12-25T17:07:54.570Z,0.60
2022-12-25T17:10:21.808Z,0.50
2022-12-25T17:12:49.075Z,0.60
2022-12-25T17:15:16.419Z,0.30
2022-12-25T17:17:43.572Z,0.35
2022-12-25T17:20:11.014Z,0.35
2022-12-25T17:22:38.179Z,0.50
2022-12-25T17:25:05.552Z,0.30
2022-12-25T17:27:32.689Z,0.22
2022-12-25T17:29:59.906Z,0.50
2022-12-25T17:32:27.089Z,0.30
2022-12-25T17:34:54.435Z,0.28
2022-12-25T17:37:21.577Z,0.40
2022-12-25T17:39:48.872Z,0.30
2022-12-25T17:42:16.020Z,0.50
2022-12-25T17:44:43.182Z,0.30
2022-12-25T17:47:10.387Z,0.22
2022-12-25T17:49:37.573Z,0.30
2022-12-25T17:52:04.784Z,0.30
2022-12-25T17:54:32.000Z,0.30
2022-12-25T17:56:59.219Z,0.50
2022-12-25T17:59:29.459Z,0.30
2022-12-25T18:01:56.813Z,0.75
2022-12-25T18:04:24.581Z,0.50
2022-12-25T18:06:51.835Z,0.50
2022-12-25T18:09:20.156Z,0.40
2022-12-25T18:11:47.386Z,0.38
2022-12-25T18:14:15.723Z,0.63
2022-12-25T18:16:44.819Z,0.70
2022-12-25T18:19:13.305Z,0.55
2022-12-25T18:21:40.521Z,0.47
2022-12-25T18:24:08.569Z,0.32
2022-12-25T18:26:36.412Z,0.47
2022-12-25T18:29:05.007Z,0.60
2022-12-25T18:31:32.437Z,0.70
2022-12-25T18:34:00.288Z,0.70
2022-12-25T18:36:28.561Z,1.40
2022-12-25T18:38:56.440Z,0.70
2022-12-25T18:41:23.719Z,0.60
2022-12-25T18:43:55.254Z,0.80
2022-12-25T18:46:24.450Z,0.60
2022-12-25T18:48:52.632Z,0.70
2022-12-25T18:51:20.017Z,0.85
2022-12-25T18:53:47.222Z,1.00
2022-12-25T18:56:15.726Z,0.90
2022-12-25T18:58:43.366Z,0.80
2022-12-25T19:01:18.279Z,0.95
2022-12-25T19:03:46.459Z,0.68
2022-12-25T19:06:17.755Z,0.60
2022-12-25T19:08:44.908Z,0.60
2022-12-25T19:11:12.090Z,0.57
2022-12-25T19:13:39.356Z,0.80
2022-12-25T19:16:06.723Z,1.52
2022-12-25T19:18:33.975Z,0.40
2022-12-25T19:21:02.225Z,0.60
2022-12-25T19:23:29.410Z,0.60
2022-12-25T19:25:56.617Z,0.70
2022-12-25T19:28:25.127Z,0.50
2022-12-25T19:30:55.505Z,0.50
2022-12-25T19:33:22.862Z,0.30
2022-12-25T19:35:50.230Z,0.40
2022-12-25T19:38:17.430Z,0.40
2022-12-25T19:41:00.429Z,1.27
2022-12-25T19:43:33.251Z,0.80
2022-12-25T19:46:01.746Z,0.70
2022-12-25T19:48:29.502Z,0.50
2022-12-25T19:50:56.686Z,0.30
2022-12-25T19:53:23.925Z,0.70
2022-12-25T19:55:54.451Z,0.45
2022-12-25T19:58:22.883Z,0.35
2022-12-25T20:01:06.626Z,0.40
2022-12-25T20:03:37.545Z,0.43
2022-12-25T20:06:11.789Z,0.77
2022-12-25T20:08:38.930Z,0.50
2022-12-25T20:11:06.097Z,0.80
2022-12-25T20:13:33.261Z,0.43
2022-12-25T20:16:01.463Z,0.65
2022-12-25T20:18:29.281Z,0.43
2022-12-25T20:21:00.651Z,0.70
2022-12-25T20:23:28.360Z,0.75
2022-12-25T20:25:58.349Z,0.60
2022-12-25T20:28:25.550Z,0.73
2022-12-25T20:30:52.779Z,0.55
2022-12-25T20:33:20.032Z,0.40
2022-12-25T20:35:47.929Z,0.40
2022-12-25T20:38:15.472Z,0.90
2022-12-25T20:41:24.517Z,1.02
2022-12-25T20:43:30.054Z,0.40
2022-12-25T20:45:57.393Z,0.60
2022-12-25T20:48:24.702Z,0.70
2022-12-25T20:50:52.635Z,0.50
2022-12-25T20:53:20.296Z,0.57
2022-12-25T20:55:48.202Z,0.63
2022-12-25T20:58:15.852Z,0.70
2022-12-25T21:00:43.920Z,0.60
2022-12-25T21:03:11.701Z,0.65
2022-12-25T21:05:49.805Z,0.80
2022-12-25T21:08:20.548Z,0.47
2022-12-25T21:10:50.512Z,0.50
2022-12-25T21:13:18.504Z,0.25
2022-12-25T21:15:46.460Z,0.50
2022-12-25T21:18:13.995Z,0.45
2022-12-25T21:20:43.552Z,1.25
2022-12-25T21:23:10.729Z,0.90
2022-12-25T21:25:37.926Z,0.70
2022-12-25T21:28:05.130Z,1.02
2022-12-25T21:30:32.398Z,1.27
2022-12-25T21:33:18.187Z,0.70
2022-12-25T21:35:45.367Z,1.70
2022-12-25T21:38:12.581Z,0.68
2022-12-25T21:40:39.994Z,2.50
2022-12-25T21:43:07.335Z,1.30
2022-12-25T21:45:35.274Z,0.65
2022-12-25T21:48:03.544Z,2.05
2022-12-25T21:50:49.815Z,1.55
2022-12-25T21:53:18.045Z,0.40
2022-12-25T21:55:55.967Z,0.77
2022-12-25T21:58:23.166Z,0.68
2022-12-25T22:00:50.372Z,1.13
2022-12-25T22:03:17.623Z,0.70
2022-12-25T22:06:03.661Z,0.80
2022-12-25T22:08:32.164Z,0.70
2022-12-25T22:11:03.178Z,0.60
2022-12-25T22:13:49.106Z,0.80
2022-12-25T22:16:35.350Z,0.60
2022-12-25T22:19:21.105Z,0.50
2022-12-25T22:21:48.354Z,0.50
2022-12-25T22:24:15.589Z,0.93
2022-12-25T22:26:44.559Z,0.40
2022-12-25T22:29:11.706Z,1.00
2022-12-25T22:31:46.215Z,0.77
2022-12-25T22:34:15.621Z,0.70
2022-12-25T22:36:43.187Z,0.40
2022-12-25T22:39:10.534Z,0.52
2022-12-25T22:41:37.734Z,0.95
2022-12-25T22:44:20.619Z,1.60
2022-12-25T22:46:47.912Z,1.20
2022-12-25T22:49:18.010Z,1.15
2022-12-25T22:51:45.953Z,1.63
2022-12-25T22:54:13.268Z,0.55
2022-12-25T22:56:41.581Z,0.63
2022-12-25T22:59:09.010Z,0.80
2022-12-25T23:01:36.561Z,0.60
2022-12-25T23:04:03.982Z,0.65
2022-12-25T23:06:31.168Z,0.95
2022-12-25T23:08:58.674Z,1.20
2022-12-25T23:11:26.093Z,0.70
2022-12-25T23:14:12.279Z,0.90
2022-12-25T23:16:39.460Z,1.05
2022-12-25T23:19:26.542Z,0.80
2022-12-25T23:22:12.598Z,1.10
2022-12-25T23:24:58.375Z,0.98
2022-12-25T23:27:25.540Z,0.85
2022-12-25T23:29:52.663Z,1.05
2022-12-25T23:32:22.543Z,1.20
2022-12-25T23:34:49.786Z,0.93
2022-12-25T23:37:17.129Z,0.93
2022-12-25T23:39:44.337Z,0.93
2022-12-25T23:42:11.517Z,0.90
2022-12-25T23:44:38.683Z,0.98
2022-12-25T23:47:05.950Z,1.13
2022-12-25T23:49:33.230Z,1.13
2022-12-25T23:52:00.397Z,1.17
2022-12-25T23:54:28.615Z,0.93
2022-12-25T23:56:59.367Z,1.80
2022-12-25T23:59:27.234Z,1.67
